sensor_id;sensor_type;location;lat;lon;timestamp;temperature;humidity
21306;DHT22;10812;51.838;5.838;2022-10-16T00:01:03;12.10;99.90
21306;DHT22;10812;51.838;5.838;2022-10-16T00:03:32;12.00;99.90
21306;DHT22;10812;51.838;5.838;2022-10-16T00:06:00;12.00;99.90
21306;DHT22;10812;51.838;5.838;2022-10-16T00:08:29;11.90;99.90
21306;DHT22;10812;51.838;5.838;2022-10-16T00:11:02;11.90;99.90
21306;DHT22;10812;51.838;5.838;2022-10-16T00:13:33;11.80;99.90
21306;DHT22;10812;51.838;5.838;2022-10-16T00:16:01;11.80;99.90
21306;DHT22;10812;51.838;5.838;2022-10-16T00:18:30;11.70;99.90
21306;DHT22;10812;51.838;5.838;2022-10-16T00:21:02;11.70;99.90
21306;DHT22;10812;51.838;5.838;2022-10-16T00:23:30;11.70;99.90
21306;DHT22;10812;51.838;5.838;2022-10-16T00:26:00;11.70;99.90
21306;DHT22;10812;51.838;5.838;2022-10-16T00:28:29;11.60;99.90
21306;DHT22;10812;51.838;5.838;2022-10-16T00:31:02;11.60;99.90
21306;DHT22;10812;51.838;5.838;2022-10-16T00:33:30;11.60;99.90
21306;DHT22;10812;51.838;5.838;2022-10-16T00:35:58;11.60;99.90
21306;DHT22;10812;51.838;5.838;2022-10-16T00:38:26;11.60;99.90
21306;DHT22;10812;51.838;5.838;2022-10-16T00:40:54;11.60;99.90
21306;DHT22;10812;51.838;5.838;2022-10-16T00:43:35;11.70;99.90
21306;DHT22;10812;51.838;5.838;2022-10-16T00:46:11;11.70;99.90
21306;DHT22;10812;51.838;5.838;2022-10-16T00:48:43;11.70;99.90
21306;DHT22;10812;51.838;5.838;2022-10-16T00:51:14;11.60;99.90
21306;DHT22;10812;51.838;5.838;2022-10-16T00:53:42;11.60;99.90
21306;DHT22;10812;51.838;5.838;2022-10-16T00:56:10;11.70;99.90
21306;DHT22;10812;51.838;5.838;2022-10-16T00:58:39;11.60;99.90
21306;DHT22;10812;51.838;5.838;2022-10-16T01:01:08;11.70;99.90
21306;DHT22;10812;51.838;5.838;2022-10-16T01:03:37;11.70;99.90
21306;DHT22;10812;51.838;5.838;2022-10-16T01:06:14;11.70;99.90
21306;DHT22;10812;51.838;5.838;2022-10-16T01:08:58;11.70;99.90
21306;DHT22;10812;51.838;5.838;2022-10-16T01:11:33;11.70;99.90
21306;DHT22;10812;51.838;5.838;2022-10-16T01:14:07;11.60;99.90
21306;DHT22;10812;51.838;5.838;2022-10-16T01:16:44;11.60;99.90
21306;DHT22;10812;51.838;5.838;2022-10-16T01:19:20;11.60;99.90
21306;DHT22;10812;51.838;5.838;2022-10-16T01:21:53;11.60;99.90
21306;DHT22;10812;51.838;5.838;2022-10-16T01:24:29;11.60;99.90
21306;DHT22;10812;51.838;5.838;2022-10-16T01:27:12;11.60;99.90
21306;DHT22;10812;51.838;5.838;2022-10-16T01:29:48;11.60;99.90
21306;DHT22;10812;51.838;5.838;2022-10-16T01:32:21;11.60;99.90
21306;DHT22;10812;51.838;5.838;2022-10-16T01:34:52;11.60;99.90
21306;DHT22;10812;51.838;5.838;2022-10-16T01:37:32;11.60;99.90
21306;DHT22;10812;51.838;5.838;2022-10-16T01:40:03;11.60;99.90
21306;DHT22;10812;51.838;5.838;2022-10-16T01:42:37;11.60;99.90
21306;DHT22;10812;51.838;5.838;2022-10-16T01:45:07;11.70;99.90
21306;DHT22;10812;51.838;5.838;2022-10-16T01:47:39;11.70;99.90
21306;DHT22;10812;51.838;5.838;2022-10-16T01:50:08;11.70;99.90
21306;DHT22;10812;51.838;5.838;2022-10-16T01:52:39;11.70;99.90
21306;DHT22;10812;51.838;5.838;2022-10-16T01:55:11;11.80;99.90
21306;DHT22;10812;51.838;5.838;2022-10-16T01:57:44;11.80;99.90
21306;DHT22;10812;51.838;5.838;2022-10-16T02:00:14;11.80;99.90
21306;DHT22;10812;51.838;5.838;2022-10-16T02:02:46;11.80;99.90
21306;DHT22;10812;51.838;5.838;2022-10-16T02:05:21;11.80;99.90
21306;DHT22;10812;51.838;5.838;2022-10-16T02:07:51;11.90;99.90
21306;DHT22;10812;51.838;5.838;2022-10-16T02:10:19;12.00;99.90
21306;DHT22;10812;51.838;5.838;2022-10-16T02:12:53;11.90;99.90
21306;DHT22;10812;51.838;5.838;2022-10-16T02:15:23;12.00;99.90
21306;DHT22;10812;51.838;5.838;2022-10-16T02:17:51;12.10;99.90
21306;DHT22;10812;51.838;5.838;2022-10-16T02:20:26;12.20;99.90
21306;DHT22;10812;51.838;5.838;2022-10-16T02:22:56;12.30;99.90
21306;DHT22;10812;51.838;5.838;2022-10-16T02:25:28;12.30;99.90
21306;DHT22;10812;51.838;5.838;2022-10-16T02:28:02;12.30;99.90
21306;DHT22;10812;51.838;5.838;2022-10-16T02:30:34;12.30;99.90
21306;DHT22;10812;51.838;5.838;2022-10-16T02:33:07;12.30;99.90
21306;DHT22;10812;51.838;5.838;2022-10-16T02:35:36;12.30;99.90
21306;DHT22;10812;51.838;5.838;2022-10-16T02:38:06;12.30;99.90
21306;DHT22;10812;51.838;5.838;2022-10-16T02:40:36;12.30;99.90
21306;DHT22;10812;51.838;5.838;2022-10-16T02:43:06;12.40;99.90
21306;DHT22;10812;51.838;5.838;2022-10-16T02:45:35;12.40;99.90
21306;DHT22;10812;51.838;5.838;2022-10-16T02:48:04;12.40;99.90
21306;DHT22;10812;51.838;5.838;2022-10-16T02:50:32;12.40;99.90
21306;DHT22;10812;51.838;5.838;2022-10-16T02:53:00;12.40;99.90
21306;DHT22;10812;51.838;5.838;2022-10-16T02:55:28;12.40;99.90
21306;DHT22;10812;51.838;5.838;2022-10-16T02:57:57;12.30;99.90
21306;DHT22;10812;51.838;5.838;2022-10-16T03:05:57;12.20;99.90
21306;DHT22;10812;51.838;5.838;2022-10-16T03:08:25;12.20;99.90
21306;DHT22;10812;51.838;5.838;2022-10-16T03:10:53;12.20;99.90
21306;DHT22;10812;51.838;5.838;2022-10-16T03:13:21;12.20;99.90
21306;DHT22;10812;51.838;5.838;2022-10-16T03:15:49;12.20;99.90
21306;DHT22;10812;51.838;5.838;2022-10-16T03:18:17;12.10;99.90
21306;DHT22;10812;51.838;5.838;2022-10-16T03:20:45;12.20;99.90
21306;DHT22;10812;51.838;5.838;2022-10-16T03:23:15;12.20;99.90
21306;DHT22;10812;51.838;5.838;2022-10-16T03:25:43;12.20;99.90
21306;DHT22;10812;51.838;5.838;2022-10-16T03:28:14;12.10;99.90
21306;DHT22;10812;51.838;5.838;2022-10-16T03:30:43;12.10;99.90
21306;DHT22;10812;51.838;5.838;2022-10-16T03:33:11;12.10;99.90
21306;DHT22;10812;51.838;5.838;2022-10-16T03:35:39;12.20;99.90
21306;DHT22;10812;51.838;5.838;2022-10-16T03:38:07;12.20;99.90
21306;DHT22;10812;51.838;5.838;2022-10-16T03:40:37;12.20;99.90
21306;DHT22;10812;51.838;5.838;2022-10-16T03:43:05;12.20;99.90
21306;DHT22;10812;51.838;5.838;2022-10-16T03:45:33;12.10;99.90
21306;DHT22;10812;51.838;5.838;2022-10-16T03:48:01;12.10;99.90
21306;DHT22;10812;51.838;5.838;2022-10-16T03:50:30;12.10;99.90
21306;DHT22;10812;51.838;5.838;2022-10-16T03:52:58;12.20;99.90
21306;DHT22;10812;51.838;5.838;2022-10-16T03:55:26;12.20;99.90
21306;DHT22;10812;51.838;5.838;2022-10-16T03:57:55;12.10;99.90
21306;DHT22;10812;51.838;5.838;2022-10-16T04:00:23;12.20;99.90
21306;DHT22;10812;51.838;5.838;2022-10-16T04:02:51;12.20;99.90
21306;DHT22;10812;51.838;5.838;2022-10-16T04:05:19;12.10;99.90
21306;DHT22;10812;51.838;5.838;2022-10-16T04:07:48;12.20;99.90
21306;DHT22;10812;51.838;5.838;2022-10-16T04:10:16;12.20;99.90
21306;DHT22;10812;51.838;5.838;2022-10-16T04:12:44;12.20;99.90
21306;DHT22;10812;51.838;5.838;2022-10-16T04:15:13;12.10;99.90
21306;DHT22;10812;51.838;5.838;2022-10-16T04:17:41;12.10;99.90
21306;DHT22;10812;51.838;5.838;2022-10-16T04:20:09;12.10;99.90
21306;DHT22;10812;51.838;5.838;2022-10-16T04:22:37;12.10;99.90
21306;DHT22;10812;51.838;5.838;2022-10-16T04:25:06;12.00;99.90
21306;DHT22;10812;51.838;5.838;2022-10-16T04:27:34;12.00;99.90
21306;DHT22;10812;51.838;5.838;2022-10-16T04:30:03;12.10;99.90
21306;DHT22;10812;51.838;5.838;2022-10-16T04:32:33;12.00;99.90
21306;DHT22;10812;51.838;5.838;2022-10-16T04:35:01;12.00;99.90
21306;DHT22;10812;51.838;5.838;2022-10-16T04:37:29;12.00;99.90
21306;DHT22;10812;51.838;5.838;2022-10-16T04:39:57;12.00;99.90
21306;DHT22;10812;51.838;5.838;2022-10-16T04:42:25;12.00;99.90
21306;DHT22;10812;51.838;5.838;2022-10-16T04:44:53;12.00;99.90
21306;DHT22;10812;51.838;5.838;2022-10-16T04:47:21;11.90;99.90
21306;DHT22;10812;51.838;5.838;2022-10-16T04:49:51;12.00;99.90
21306;DHT22;10812;51.838;5.838;2022-10-16T04:52:19;11.90;99.90
21306;DHT22;10812;51.838;5.838;2022-10-16T04:54:48;11.80;99.90
21306;DHT22;10812;51.838;5.838;2022-10-16T04:57:17;11.80;99.90
21306;DHT22;10812;51.838;5.838;2022-10-16T04:59:45;11.80;99.90
21306;DHT22;10812;51.838;5.838;2022-10-16T05:02:13;11.80;99.90
21306;DHT22;10812;51.838;5.838;2022-10-16T05:04:41;11.80;99.90
21306;DHT22;10812;51.838;5.838;2022-10-16T05:07:11;11.80;99.90
21306;DHT22;10812;51.838;5.838;2022-10-16T05:09:39;11.70;99.90
21306;DHT22;10812;51.838;5.838;2022-10-16T05:12:07;11.70;99.90
21306;DHT22;10812;51.838;5.838;2022-10-16T05:14:35;11.70;99.90
21306;DHT22;10812;51.838;5.838;2022-10-16T05:17:03;11.70;99.90
21306;DHT22;10812;51.838;5.838;2022-10-16T05:19:31;11.70;99.90
21306;DHT22;10812;51.838;5.838;2022-10-16T05:21:59;11.60;99.90
21306;DHT22;10812;51.838;5.838;2022-10-16T05:24:28;11.60;99.90
21306;DHT22;10812;51.838;5.838;2022-10-16T05:26:57;11.50;99.90
21306;DHT22;10812;51.838;5.838;2022-10-16T05:29:25;11.40;99.90
21306;DHT22;10812;51.838;5.838;2022-10-16T05:31:53;11.50;99.90
21306;DHT22;10812;51.838;5.838;2022-10-16T05:34:21;11.50;99.90
21306;DHT22;10812;51.838;5.838;2022-10-16T05:36:50;11.40;99.90
21306;DHT22;10812;51.838;5.838;2022-10-16T05:39:18;11.30;99.90
21306;DHT22;10812;51.838;5.838;2022-10-16T05:41:49;11.30;99.90
21306;DHT22;10812;51.838;5.838;2022-10-16T05:44:17;11.30;99.90
21306;DHT22;10812;51.838;5.838;2022-10-16T05:46:46;11.30;99.90
21306;DHT22;10812;51.838;5.838;2022-10-16T05:49:14;11.30;99.90
21306;DHT22;10812;51.838;5.838;2022-10-16T05:51:42;11.30;99.90
21306;DHT22;10812;51.838;5.838;2022-10-16T05:54:11;11.30;99.90
21306;DHT22;10812;51.838;5.838;2022-10-16T05:56:39;11.30;99.90
21306;DHT22;10812;51.838;5.838;2022-10-16T05:59:08;11.30;99.90
21306;DHT22;10812;51.838;5.838;2022-10-16T06:01:36;11.30;99.90
21306;DHT22;10812;51.838;5.838;2022-10-16T06:04:04;11.30;99.90
21306;DHT22;10812;51.838;5.838;2022-10-16T06:06:33;11.30;99.90
21306;DHT22;10812;51.838;5.838;2022-10-16T06:09:03;11.30;99.90
21306;DHT22;10812;51.838;5.838;2022-10-16T06:11:33;11.30;99.90
21306;DHT22;10812;51.838;5.838;2022-10-16T06:14:02;11.40;99.90
21306;DHT22;10812;51.838;5.838;2022-10-16T06:16:35;11.40;99.90
21306;DHT22;10812;51.838;5.838;2022-10-16T06:19:04;11.40;99.90
21306;DHT22;10812;51.838;5.838;2022-10-16T06:21:35;11.50;99.90
21306;DHT22;10812;51.838;5.838;2022-10-16T06:24:03;11.40;99.90
21306;DHT22;10812;51.838;5.838;2022-10-16T06:26:32;11.40;99.90
21306;DHT22;10812;51.838;5.838;2022-10-16T06:29:00;11.40;99.90
21306;DHT22;10812;51.838;5.838;2022-10-16T06:31:28;11.50;99.90
21306;DHT22;10812;51.838;5.838;2022-10-16T06:33:59;11.50;99.90
21306;DHT22;10812;51.838;5.838;2022-10-16T06:36:28;11.60;99.90
21306;DHT22;10812;51.838;5.838;2022-10-16T06:38:56;11.70;99.90
21306;DHT22;10812;51.838;5.838;2022-10-16T06:41:24;11.70;99.90
21306;DHT22;10812;51.838;5.838;2022-10-16T06:43:52;11.70;99.90
21306;DHT22;10812;51.838;5.838;2022-10-16T06:46:23;11.80;99.90
21306;DHT22;10812;51.838;5.838;2022-10-16T06:48:52;11.90;99.90
21306;DHT22;10812;51.838;5.838;2022-10-16T06:51:23;12.00;99.90
21306;DHT22;10812;51.838;5.838;2022-10-16T06:53:53;12.20;99.90
21306;DHT22;10812;51.838;5.838;2022-10-16T06:56:31;12.40;99.90
21306;DHT22;10812;51.838;5.838;2022-10-16T06:59:00;12.60;99.90
21306;DHT22;10812;51.838;5.838;2022-10-16T07:01:29;13.10;99.90
21306;DHT22;10812;51.838;5.838;2022-10-16T07:03:57;14.10;99.90
21306;DHT22;10812;51.838;5.838;2022-10-16T07:06:29;15.40;99.90
21306;DHT22;10812;51.838;5.838;2022-10-16T07:09:00;16.80;99.90
21306;DHT22;10812;51.838;5.838;2022-10-16T07:11:28;18.20;99.90
21306;DHT22;10812;51.838;5.838;2022-10-16T07:13:56;19.20;99.90
21306;DHT22;10812;51.838;5.838;2022-10-16T07:16:26;19.90;99.90
21306;DHT22;10812;51.838;5.838;2022-10-16T07:18:55;20.60;99.90
21306;DHT22;10812;51.838;5.838;2022-10-16T07:21:29;20.00;99.90
21306;DHT22;10812;51.838;5.838;2022-10-16T07:23:59;18.90;99.90
21306;DHT22;10812;51.838;5.838;2022-10-16T07:26:30;17.90;99.90
21306;DHT22;10812;51.838;5.838;2022-10-16T07:28:58;17.50;99.90
21306;DHT22;10812;51.838;5.838;2022-10-16T07:31:27;17.60;99.90
21306;DHT22;10812;51.838;5.838;2022-10-16T07:33:55;17.50;99.90
21306;DHT22;10812;51.838;5.838;2022-10-16T07:36:27;17.50;99.90
21306;DHT22;10812;51.838;5.838;2022-10-16T07:38:55;17.20;99.90
21306;DHT22;10812;51.838;5.838;2022-10-16T07:41:26;16.80;99.90
21306;DHT22;10812;51.838;5.838;2022-10-16T07:43:55;16.90;99.90
21306;DHT22;10812;51.838;5.838;2022-10-16T07:46:26;16.70;99.90
21306;DHT22;10812;51.838;5.838;2022-10-16T07:48:55;16.30;99.90
21306;DHT22;10812;51.838;5.838;2022-10-16T07:51:24;16.00;99.90
21306;DHT22;10812;51.838;5.838;2022-10-16T07:53:54;16.40;99.90
21306;DHT22;10812;51.838;5.838;2022-10-16T07:56:22;17.20;99.90
21306;DHT22;10812;51.838;5.838;2022-10-16T07:58:51;18.40;99.90
21306;DHT22;10812;51.838;5.838;2022-10-16T08:01:20;19.30;99.90
21306;DHT22;10812;51.838;5.838;2022-10-16T08:03:49;19.30;99.90
21306;DHT22;10812;51.838;5.838;2022-10-16T08:06:19;19.40;99.90
21306;DHT22;10812;51.838;5.838;2022-10-16T08:08:55;19.90;99.90
21306;DHT22;10812;51.838;5.838;2022-10-16T08:11:23;20.60;99.90
21306;DHT22;10812;51.838;5.838;2022-10-16T08:13:51;21.10;99.90
21306;DHT22;10812;51.838;5.838;2022-10-16T08:16:20;21.00;99.90
21306;DHT22;10812;51.838;5.838;2022-10-16T08:18:49;21.30;99.90
21306;DHT22;10812;51.838;5.838;2022-10-16T08:21:20;21.90;99.90
21306;DHT22;10812;51.838;5.838;2022-10-16T08:23:50;21.80;99.90
21306;DHT22;10812;51.838;5.838;2022-10-16T08:26:26;21.50;99.90
21306;DHT22;10812;51.838;5.838;2022-10-16T08:28:54;21.20;99.90
21306;DHT22;10812;51.838;5.838;2022-10-16T08:31:23;21.60;99.90
21306;DHT22;10812;51.838;5.838;2022-10-16T08:33:53;22.10;99.90
21306;DHT22;10812;51.838;5.838;2022-10-16T08:36:21;22.60;99.90
21306;DHT22;10812;51.838;5.838;2022-10-16T08:38:49;22.60;99.90
21306;DHT22;10812;51.838;5.838;2022-10-16T08:41:37;22.80;99.90
21306;DHT22;10812;51.838;5.838;2022-10-16T08:44:29;22.60;99.90
21306;DHT22;10812;51.838;5.838;2022-10-16T08:47:04;22.10;99.90
21306;DHT22;10812;51.838;5.838;2022-10-16T08:49:37;21.70;99.90
21306;DHT22;10812;51.838;5.838;2022-10-16T08:52:11;20.90;99.90
21306;DHT22;10812;51.838;5.838;2022-10-16T08:54:43;20.30;99.90
21306;DHT22;10812;51.838;5.838;2022-10-16T08:57:17;20.20;99.90
21306;DHT22;10812;51.838;5.838;2022-10-16T08:59:49;20.40;99.90
21306;DHT22;10812;51.838;5.838;2022-10-16T09:02:24;21.10;99.90
21306;DHT22;10812;51.838;5.838;2022-10-16T09:05:16;21.30;99.90
21306;DHT22;10812;51.838;5.838;2022-10-16T09:07:53;20.70;99.90
21306;DHT22;10812;51.838;5.838;2022-10-16T09:10:33;20.90;99.90
21306;DHT22;10812;51.838;5.838;2022-10-16T09:13:17;20.90;99.90
21306;DHT22;10812;51.838;5.838;2022-10-16T09:15:53;21.00;99.90
21306;DHT22;10812;51.838;5.838;2022-10-16T09:18:27;21.10;99.90
21306;DHT22;10812;51.838;5.838;2022-10-16T09:21:02;21.20;99.90
21306;DHT22;10812;51.838;5.838;2022-10-16T09:23:35;21.40;99.90
21306;DHT22;10812;51.838;5.838;2022-10-16T09:26:05;21.40;99.90
21306;DHT22;10812;51.838;5.838;2022-10-16T09:28:39;21.60;99.90
21306;DHT22;10812;51.838;5.838;2022-10-16T09:31:13;21.40;99.90
21306;DHT22;10812;51.838;5.838;2022-10-16T09:33:44;21.10;99.90
21306;DHT22;10812;51.838;5.838;2022-10-16T09:36:13;21.40;99.90
21306;DHT22;10812;51.838;5.838;2022-10-16T09:38:42;21.20;99.90
21306;DHT22;10812;51.838;5.838;2022-10-16T09:41:16;21.10;99.90
21306;DHT22;10812;51.838;5.838;2022-10-16T09:43:53;20.50;99.90
21306;DHT22;10812;51.838;5.838;2022-10-16T09:46:26;19.90;99.90
21306;DHT22;10812;51.838;5.838;2022-10-16T09:48:56;19.50;99.90
21306;DHT22;10812;51.838;5.838;2022-10-16T09:51:27;19.00;99.90
21306;DHT22;10812;51.838;5.838;2022-10-16T09:53:58;18.80;99.90
21306;DHT22;10812;51.838;5.838;2022-10-16T09:56:28;18.50;99.90
21306;DHT22;10812;51.838;5.838;2022-10-16T09:58:59;18.30;99.90
21306;DHT22;10812;51.838;5.838;2022-10-16T10:01:31;18.20;99.90
21306;DHT22;10812;51.838;5.838;2022-10-16T10:04:03;18.10;99.90
21306;DHT22;10812;51.838;5.838;2022-10-16T10:06:34;18.20;99.90
21306;DHT22;10812;51.838;5.838;2022-10-16T10:09:17;18.00;99.90
21306;DHT22;10812;51.838;5.838;2022-10-16T10:11:49;17.90;99.90
21306;DHT22;10812;51.838;5.838;2022-10-16T10:14:31;17.90;99.90
21306;DHT22;10812;51.838;5.838;2022-10-16T10:17:11;18.00;99.90
21306;DHT22;10812;51.838;5.838;2022-10-16T10:19:41;18.00;99.90
21306;DHT22;10812;51.838;5.838;2022-10-16T10:22:26;18.10;99.90
21306;DHT22;10812;51.838;5.838;2022-10-16T10:25:20;18.10;99.90
21306;DHT22;10812;51.838;5.838;2022-10-16T10:30:58;18.00;99.90
21306;DHT22;10812;51.838;5.838;2022-10-16T10:33:33;18.00;99.90
21306;DHT22;10812;51.838;5.838;2022-10-16T10:36:15;18.10;99.90
21306;DHT22;10812;51.838;5.838;2022-10-16T10:38:50;18.10;99.90
21306;DHT22;10812;51.838;5.838;2022-10-16T10:44:26;18.20;99.90
21306;DHT22;10812;51.838;5.838;2022-10-16T10:47:06;18.40;99.90
21306;DHT22;10812;51.838;5.838;2022-10-16T10:49:50;18.40;99.90
21306;DHT22;10812;51.838;5.838;2022-10-16T10:52:47;18.30;99.90
21306;DHT22;10812;51.838;5.838;2022-10-16T10:55:25;18.30;99.90
21306;DHT22;10812;51.838;5.838;2022-10-16T10:58:19;18.50;99.90
21306;DHT22;10812;51.838;5.838;2022-10-16T11:00:55;18.50;99.90
21306;DHT22;10812;51.838;5.838;2022-10-16T11:03:46;18.40;99.90
21306;DHT22;10812;51.838;5.838;2022-10-16T11:06:26;18.40;99.90
21306;DHT22;10812;51.838;5.838;2022-10-16T11:08:59;18.30;99.90
21306;DHT22;10812;51.838;5.838;2022-10-16T11:11:32;18.30;99.90
21306;DHT22;10812;51.838;5.838;2022-10-16T11:14:08;18.30;99.90
21306;DHT22;10812;51.838;5.838;2022-10-16T11:16:43;18.50;99.90
21306;DHT22;10812;51.838;5.838;2022-10-16T11:19:22;18.50;99.90
21306;DHT22;10812;51.838;5.838;2022-10-16T11:21:56;18.70;99.90
21306;DHT22;10812;51.838;5.838;2022-10-16T11:24:35;18.80;99.90
21306;DHT22;10812;51.838;5.838;2022-10-16T11:27:08;18.90;99.90
21306;DHT22;10812;51.838;5.838;2022-10-16T11:29:43;18.80;99.90
21306;DHT22;10812;51.838;5.838;2022-10-16T11:32:19;18.80;99.90
21306;DHT22;10812;51.838;5.838;2022-10-16T11:34:53;18.70;99.90
21306;DHT22;10812;51.838;5.838;2022-10-16T11:37:28;18.70;99.90
21306;DHT22;10812;51.838;5.838;2022-10-16T11:40:05;18.60;99.90
21306;DHT22;10812;51.838;5.838;2022-10-16T11:42:44;18.60;99.90
21306;DHT22;10812;51.838;5.838;2022-10-16T11:45:25;18.60;99.90
21306;DHT22;10812;51.838;5.838;2022-10-16T11:47:58;18.50;99.90
21306;DHT22;10812;51.838;5.838;2022-10-16T11:50:34;18.40;99.90
21306;DHT22;10812;51.838;5.838;2022-10-16T11:53:11;18.50;99.90
21306;DHT22;10812;51.838;5.838;2022-10-16T11:55:43;18.50;99.90
21306;DHT22;10812;51.838;5.838;2022-10-16T11:58:20;18.50;99.90
21306;DHT22;10812;51.838;5.838;2022-10-16T12:00:55;18.60;99.90
21306;DHT22;10812;51.838;5.838;2022-10-16T12:03:30;18.60;99.90
21306;DHT22;10812;51.838;5.838;2022-10-16T12:06:15;18.50;99.90
21306;DHT22;10812;51.838;5.838;2022-10-16T12:08:47;18.50;99.90
21306;DHT22;10812;51.838;5.838;2022-10-16T12:11:33;18.50;99.90
21306;DHT22;10812;51.838;5.838;2022-10-16T12:14:21;18.50;99.90
21306;DHT22;10812;51.838;5.838;2022-10-16T12:16:55;18.40;99.90
21306;DHT22;10812;51.838;5.838;2022-10-16T12:19:24;18.40;99.90
21306;DHT22;10812;51.838;5.838;2022-10-16T12:21:56;18.40;99.90
21306;DHT22;10812;51.838;5.838;2022-10-16T12:24:33;18.30;99.90
21306;DHT22;10812;51.838;5.838;2022-10-16T12:27:04;18.20;99.90
21306;DHT22;10812;51.838;5.838;2022-10-16T12:29:35;18.20;99.90
21306;DHT22;10812;51.838;5.838;2022-10-16T12:32:05;18.20;99.90
21306;DHT22;10812;51.838;5.838;2022-10-16T12:35:18;18.20;99.90
21306;DHT22;10812;51.838;5.838;2022-10-16T12:37:49;18.10;99.90
21306;DHT22;10812;51.838;5.838;2022-10-16T12:40:27;18.10;99.90
21306;DHT22;10812;51.838;5.838;2022-10-16T12:42:55;18.10;99.90
21306;DHT22;10812;51.838;5.838;2022-10-16T12:45:29;18.10;99.90
21306;DHT22;10812;51.838;5.838;2022-10-16T12:48:00;18.20;99.90
21306;DHT22;10812;51.838;5.838;2022-10-16T12:50:34;18.40;99.90
21306;DHT22;10812;51.838;5.838;2022-10-16T12:53:17;18.70;99.90
21306;DHT22;10812;51.838;5.838;2022-10-16T12:56:00;19.00;99.90
21306;DHT22;10812;51.838;5.838;2022-10-16T12:58:53;19.20;99.90
21306;DHT22;10812;51.838;5.838;2022-10-16T13:01:34;19.30;99.90
21306;DHT22;10812;51.838;5.838;2022-10-16T13:04:35;19.30;99.90
21306;DHT22;10812;51.838;5.838;2022-10-16T13:07:37;19.10;99.90
21306;DHT22;10812;51.838;5.838;2022-10-16T13:10:15;19.10;99.90
21306;DHT22;10812;51.838;5.838;2022-10-16T13:13:16;19.10;99.90
21306;DHT22;10812;51.838;5.838;2022-10-16T13:15:57;19.00;99.90
21306;DHT22;10812;51.838;5.838;2022-10-16T13:18:29;19.00;99.90
21306;DHT22;10812;51.838;5.838;2022-10-16T13:21:07;18.80;99.90
21306;DHT22;10812;51.838;5.838;2022-10-16T13:23:43;18.70;99.90
21306;DHT22;10812;51.838;5.838;2022-10-16T13:26:23;18.50;99.90
21306;DHT22;10812;51.838;5.838;2022-10-16T13:28:58;18.40;99.90
21306;DHT22;10812;51.838;5.838;2022-10-16T13:31:28;18.30;99.90
21306;DHT22;10812;51.838;5.838;2022-10-16T13:33:58;18.30;99.90
21306;DHT22;10812;51.838;5.838;2022-10-16T13:36:29;18.30;99.90
21306;DHT22;10812;51.838;5.838;2022-10-16T13:39:10;18.40;99.90
21306;DHT22;10812;51.838;5.838;2022-10-16T13:41:40;18.40;99.90
21306;DHT22;10812;51.838;5.838;2022-10-16T13:44:14;18.40;99.90
21306;DHT22;10812;51.838;5.838;2022-10-16T13:46:43;18.40;99.90
21306;DHT22;10812;51.838;5.838;2022-10-16T13:49:14;18.30;99.90
21306;DHT22;10812;51.838;5.838;2022-10-16T13:51:54;18.30;99.90
21306;DHT22;10812;51.838;5.838;2022-10-16T13:54:23;18.30;99.90
21306;DHT22;10812;51.838;5.838;2022-10-16T13:56:52;18.30;99.90
21306;DHT22;10812;51.838;5.838;2022-10-16T13:59:36;18.30;99.90
21306;DHT22;10812;51.838;5.838;2022-10-16T14:02:14;18.30;99.90
21306;DHT22;10812;51.838;5.838;2022-10-16T14:04:43;18.20;99.90
21306;DHT22;10812;51.838;5.838;2022-10-16T14:07:14;18.20;99.90
21306;DHT22;10812;51.838;5.838;2022-10-16T14:09:48;18.10;99.90
21306;DHT22;10812;51.838;5.838;2022-10-16T14:12:19;18.10;99.90
21306;DHT22;10812;51.838;5.838;2022-10-16T14:14:54;18.10;99.90
21306;DHT22;10812;51.838;5.838;2022-10-16T14:17:25;18.20;99.90
21306;DHT22;10812;51.838;5.838;2022-10-16T14:19:56;18.20;99.90
21306;DHT22;10812;51.838;5.838;2022-10-16T14:22:32;18.20;99.90
21306;DHT22;10812;51.838;5.838;2022-10-16T14:25:01;18.20;99.90
21306;DHT22;10812;51.838;5.838;2022-10-16T14:27:33;18.30;99.90
21306;DHT22;10812;51.838;5.838;2022-10-16T14:30:16;18.30;99.90
21306;DHT22;10812;51.838;5.838;2022-10-16T14:32:54;18.30;99.90
21306;DHT22;10812;51.838;5.838;2022-10-16T14:35:25;18.40;99.90
21306;DHT22;10812;51.838;5.838;2022-10-16T14:37:55;18.50;99.90
21306;DHT22;10812;51.838;5.838;2022-10-16T14:40:25;18.50;99.90
21306;DHT22;10812;51.838;5.838;2022-10-16T14:42:55;18.40;99.90
21306;DHT22;10812;51.838;5.838;2022-10-16T14:45:26;18.30;99.90
21306;DHT22;10812;51.838;5.838;2022-10-16T14:47:57;18.20;99.90
21306;DHT22;10812;51.838;5.838;2022-10-16T14:50:25;18.00;99.90
21306;DHT22;10812;51.838;5.838;2022-10-16T14:52:54;18.00;99.90
21306;DHT22;10812;51.838;5.838;2022-10-16T14:55:22;17.90;99.90
21306;DHT22;10812;51.838;5.838;2022-10-16T14:57:51;17.90;99.90
21306;DHT22;10812;51.838;5.838;2022-10-16T15:00:27;17.80;99.90
21306;DHT22;10812;51.838;5.838;2022-10-16T15:02:56;17.90;99.90
21306;DHT22;10812;51.838;5.838;2022-10-16T15:05:25;18.00;99.90
21306;DHT22;10812;51.838;5.838;2022-10-16T15:07:54;17.90;99.90
21306;DHT22;10812;51.838;5.838;2022-10-16T15:10:24;17.90;99.90
21306;DHT22;10812;51.838;5.838;2022-10-16T15:12:52;17.90;99.90
21306;DHT22;10812;51.838;5.838;2022-10-16T15:15:40;17.80;99.90
21306;DHT22;10812;51.838;5.838;2022-10-16T15:18:13;17.80;99.90
21306;DHT22;10812;51.838;5.838;2022-10-16T15:20:49;17.80;99.90
21306;DHT22;10812;51.838;5.838;2022-10-16T15:23:19;17.70;99.90
21306;DHT22;10812;51.838;5.838;2022-10-16T15:25:49;17.60;99.90
21306;DHT22;10812;51.838;5.838;2022-10-16T15:28:19;17.60;99.90
21306;DHT22;10812;51.838;5.838;2022-10-16T15:30:49;17.50;99.90
21306;DHT22;10812;51.838;5.838;2022-10-16T15:44:22;17.40;99.90
21306;DHT22;10812;51.838;5.838;2022-10-16T15:46:54;17.40;99.90
21306;DHT22;10812;51.838;5.838;2022-10-16T15:49:23;17.50;99.90
21306;DHT22;10812;51.838;5.838;2022-10-16T15:51:51;17.40;99.90
21306;DHT22;10812;51.838;5.838;2022-10-16T15:54:19;17.40;99.90
21306;DHT22;10812;51.838;5.838;2022-10-16T15:56:49;17.40;99.90
21306;DHT22;10812;51.838;5.838;2022-10-16T15:59:17;17.30;99.90
21306;DHT22;10812;51.838;5.838;2022-10-16T16:01:45;17.30;99.90
21306;DHT22;10812;51.838;5.838;2022-10-16T16:04:15;17.30;99.90
21306;DHT22;10812;51.838;5.838;2022-10-16T16:07:03;17.30;99.90
21306;DHT22;10812;51.838;5.838;2022-10-16T16:09:33;17.30;99.90
21306;DHT22;10812;51.838;5.838;2022-10-16T16:12:02;17.30;99.90
21306;DHT22;10812;51.838;5.838;2022-10-16T16:14:30;17.40;99.90
21306;DHT22;10812;51.838;5.838;2022-10-16T16:16:58;17.30;99.90
21306;DHT22;10812;51.838;5.838;2022-10-16T16:19:28;17.30;99.90
21306;DHT22;10812;51.838;5.838;2022-10-16T16:21:56;17.40;99.90
21306;DHT22;10812;51.838;5.838;2022-10-16T16:24:24;17.30;99.90